createdAt,value
2022-12-22T09:14:40.082Z,6.70
2022-12-22T09:17:06.806Z,6.70
2022-12-22T09:19:33.487Z,6.90
2022-12-22T09:22:00.249Z,7.10
2022-12-22T09:24:27.032Z,7.30
2022-12-22T09:26:56.738Z,7.50
2022-12-22T09:29:23.535Z,7.60
2022-12-22T09:31:50.275Z,7.70
2022-12-22T09:34:18.328Z,7.80
2022-12-22T09:36:46.306Z,8.00
2022-12-22T09:39:13.298Z,8.00
2022-12-22T09:41:50.831Z,8.10
2022-12-22T09:44:23.903Z,8.10
2022-12-22T09:46:52.349Z,8.20
2022-12-22T09:49:19.728Z,8.10
2022-12-22T09:51:50.849Z,8.10
2022-12-22T09:54:17.606Z,8.10
2022-12-22T09:56:44.358Z,8.10
2022-12-22T09:59:13.749Z,8.10
2022-12-22T10:01:49.397Z,8.10
2022-12-22T10:04:48.792Z,8.10
2022-12-22T10:07:22.548Z,8.00
2022-12-22T10:09:51.278Z,8.00
2022-12-22T10:12:24.863Z,8.10
2022-12-22T10:14:53.663Z,8.10
2022-12-22T10:17:25.468Z,8.10
2022-12-22T10:19:54.770Z,8.10
2022-12-22T10:22:29.398Z,8.10
2022-12-22T10:24:56.664Z,8.20
2022-12-22T10:27:29.599Z,8.20
2022-12-22T10:30:36.671Z,8.30
2022-12-22T10:33:05.013Z,8.50
2022-12-22T10:35:49.657Z,8.50
2022-12-22T10:38:24.912Z,8.50
2022-12-22T10:41:02.475Z,8.60
2022-12-22T10:43:37.085Z,8.50
2022-12-22T10:46:04.858Z,8.50
2022-12-22T10:48:35.335Z,8.50
2022-12-22T10:51:04.632Z,8.60
2022-12-22T10:53:50.749Z,8.70
2022-12-22T10:56:25.100Z,8.70
2022-12-22T10:58:54.858Z,8.80
2022-12-22T11:01:30.074Z,8.80
2022-12-22T11:03:58.443Z,8.90
2022-12-22T11:06:25.343Z,9.10
2022-12-22T11:08:52.354Z,9.20
2022-12-22T11:11:33.599Z,9.30
2022-12-22T11:14:16.458Z,9.30
2022-12-22T11:16:45.990Z,9.30
2022-12-22T11:19:36.954Z,9.30
2022-12-22T11:22:20.136Z,9.40
2022-12-22T11:25:03.437Z,9.40
2022-12-22T11:27:53.737Z,9.40
2022-12-22T11:30:27.269Z,9.50
2022-12-22T11:33:10.979Z,9.50
2022-12-22T11:35:58.399Z,9.50
2022-12-22T11:38:36.263Z,9.40
2022-12-22T11:41:15.014Z,9.40
2022-12-22T11:44:04.439Z,9.30
2022-12-22T11:47:03.266Z,9.20
2022-12-22T11:50:06.414Z,9.20
2022-12-22T11:53:01.735Z,9.10
2022-12-22T11:55:34.593Z,9.10
2022-12-22T11:58:26.293Z,9.20
2022-12-22T12:01:20.461Z,9.30
2022-12-22T12:03:59.782Z,9.40
2022-12-22T12:06:56.296Z,9.40
2022-12-22T12:09:43.635Z,9.40
2022-12-22T12:12:32.160Z,9.40
2022-12-22T12:15:26.654Z,9.40
2022-12-22T12:18:19.994Z,9.40
2022-12-22T12:21:07.909Z,9.30
2022-12-22T12:24:10.204Z,9.40
2022-12-22T12:26:55.772Z,9.30
2022-12-22T12:29:29.362Z,9.30
2022-12-22T12:32:04.372Z,9.30
2022-12-22T12:34:35.602Z,9.30
2022-12-22T12:37:09.209Z,9.30
2022-12-22T12:39:54.335Z,9.40
2022-12-22T12:42:40.590Z,9.30
2022-12-22T12:45:33.215Z,9.30
2022-12-22T12:48:24.980Z,9.20
2022-12-22T12:50:52.566Z,9.20
2022-12-22T12:53:21.089Z,9.20
2022-12-22T12:55:52.123Z,9.20
2022-12-22T12:58:40.098Z,9.20
2022-12-22T13:01:11.482Z,9.20
2022-12-22T13:06:51.297Z,9.20
2022-12-22T13:12:34.655Z,9.10
2022-12-22T13:15:01.819Z,9.10
2022-12-22T13:17:38.138Z,9.10
2022-12-22T13:20:06.268Z,9.00
2022-12-22T13:22:33.789Z,9.10
2022-12-22T13:25:03.701Z,9.00
2022-12-22T13:27:31.071Z,9.00
2022-12-22T13:29:58.700Z,9.00
2022-12-22T13:32:35.749Z,9.00
2022-12-22T13:37:58.970Z,9.10
2022-12-22T13:40:46.006Z,9.00
2022-12-22T13:43:18.223Z,9.10
2022-12-22T13:45:49.073Z,9.10
2022-12-22T13:48:19.661Z,9.10
2022-12-22T13:50:59.694Z,9.00
2022-12-22T13:54:08.217Z,9.00
2022-12-22T13:56:41.241Z,9.10
2022-12-22T13:59:30.184Z,9.00
2022-12-22T14:02:15.515Z,9.00
2022-12-22T14:04:51.797Z,9.00
2022-12-22T14:07:20.234Z,9.00
2022-12-22T14:09:50.921Z,8.90
2022-12-22T14:12:23.808Z,8.90
2022-12-22T14:14:53.868Z,8.90
2022-12-22T14:17:28.890Z,8.90
2022-12-22T14:19:58.398Z,8.90
2022-12-22T14:22:29.688Z,8.90
2022-12-22T14:24:59.949Z,8.90
2022-12-22T14:27:35.596Z,8.90
2022-12-22T14:30:05.349Z,8.90
2022-12-22T14:32:39.354Z,8.80
2022-12-22T14:35:21.506Z,8.80
2022-12-22T14:37:52.762Z,8.80
2022-12-22T14:40:40.776Z,8.70
2022-12-22T14:43:18.802Z,8.60
2022-12-22T14:45:48.414Z,8.60
2022-12-22T14:48:26.281Z,8.60
2022-12-22T14:50:54.111Z,8.60
2022-12-22T14:53:36.543Z,8.50
2022-12-22T14:56:03.548Z,8.50
2022-12-22T14:58:38.674Z,8.50
2022-12-22T15:01:20.574Z,8.40
2022-12-22T15:04:19.405Z,8.40
2022-12-22T15:06:48.000Z,8.40
2022-12-22T15:09:14.691Z,8.40
2022-12-22T15:11:52.310Z,8.40
2022-12-22T15:14:25.595Z,8.30
2022-12-22T15:16:57.921Z,8.20
2022-12-22T15:19:28.152Z,8.20
2022-12-22T15:21:54.891Z,8.10
2022-12-22T15:24:24.761Z,8.00
2022-12-22T15:26:51.635Z,7.90
2022-12-22T15:29:18.382Z,7.90
2022-12-22T15:31:45.252Z,7.80
2022-12-22T15:34:18.324Z,7.60
2022-12-22T15:36:52.353Z,7.60
2022-12-22T15:39:21.464Z,7.50
2022-12-22T15:41:48.939Z,7.40
2022-12-22T15:44:15.967Z,7.30
2022-12-22T15:46:46.986Z,7.20
2022-12-22T15:49:18.212Z,7.20
2022-12-22T15:51:47.602Z,7.20
2022-12-22T15:54:15.504Z,7.10
2022-12-22T15:56:42.932Z,7.00
2022-12-22T15:59:27.220Z,7.00
2022-12-22T16:02:01.412Z,6.90
2022-12-22T16:04:28.895Z,6.80
